Time;durP1;ratioP1;P1;durP2;ratioP2;P2;SDS_P1;SDS_P2;PMS_P1;PMS_P2;Temp;Humidity;BMP_temperature;BMP_pressure;BME280_temperature;BME280_humidity;BME280_pressure;Samples;Min_cycle;Max_cycle;Signal;HPM_P1;HPM_P2
2023/06/29 00:02:25;;;;;;;12.63;6.22;;;;;;;;;;5016725;28;20112;-78
2023/06/29 00:04:52;;;;;;;6.55;2.60;;;;;;;;;;5017171;28;20068;-78
2023/06/29 00:07:18;;;;;;;6.93;2.60;;;;;;;;;;5017319;28;20042;-78
2023/06/29 00:09:44;;;;;;;5.03;2.65;;;;;;;;;;5016819;28;20036;-78
2023/06/29 00:12:10;;;;;;;7.05;2.72;;;;;;;;;;4999054;28;20192;-77
2023/06/29 00:14:36;;;;;;;6.60;2.80;;;;;;;;;;5017241;28;20050;-78
2023/06/29 00:17:02;;;;;;;5.35;2.47;;;;;;;;;;5016223;28;20032;-78
2023/06/29 00:19:28;;;;;;;7.13;2.70;;;;;;;;;;5013979;28;20030;-77
2023/06/29 00:21:57;;;;;;;6.30;2.78;;;;;;;;;;5013643;28;20037;-76
2023/06/29 00:24:23;;;;;;;8.15;2.40;;;;;;;;;;5013468;28;20033;-77
2023/06/29 00:26:49;;;;;;;6.35;2.58;;;;;;;;;;5013652;28;20021;-78
2023/06/29 00:29:15;;;;;;;6.25;2.72;;;;;;;;;;4995197;28;20404;-76
2023/06/29 00:31:41;;;;;;;8.80;2.45;;;;;;;;;;5013742;28;20044;-76
2023/06/29 00:34:07;;;;;;;5.57;2.33;;;;;;;;;;5013389;28;20164;-77
2023/06/29 00:36:33;;;;;;;4.78;2.20;;;;;;;;;;5013334;28;20022;-76
2023/06/29 00:38:59;;;;;;;3.17;1.95;;;;;;;;;;5012476;28;20026;-77
2023/06/29 00:41:25;;;;;;;9.50;2.55;;;;;;;;;;4995720;28;20057;-76
2023/06/29 00:43:51;;;;;;;3.55;2.70;;;;;;;;;;5013241;28;20018;-75
2023/06/29 00:46:18;;;;;;;5.13;2.67;;;;;;;;;;5013189;28;20440;-78
2023/06/29 00:48:45;;;;;;;3.22;2.55;;;;;;;;;;5012276;28;20495;-78
2023/06/29 00:51:11;;;;;;;4.13;2.67;;;;;;;;;;5013238;28;20026;-77
2023/06/29 00:53:37;;;;;;;6.03;2.55;;;;;;;;;;5012830;28;20554;-76
2023/06/29 00:56:03;;;;;;;5.57;2.25;;;;;;;;;;5013141;28;20068;-77
2023/06/29 00:58:29;;;;;;;6.78;2.55;;;;;;;;;;5012132;28;20469;-77
2023/06/29 01:00:58;;;;;;;4.00;2.60;;;;;;;;;;5013118;28;20026;-77
2023/06/29 01:03:24;;;;;;;6.18;2.40;;;;;;;;;;5013773;28;20014;-76
2023/06/29 01:05:55;;;;;;;5.82;2.47;;;;;;;;;;5013955;28;20049;-76
2023/06/29 01:08:23;;;;;;;4.70;2.75;;;;;;;;;;5012707;28;20033;-77
2023/06/29 01:10:49;;;;;;;6.00;2.22;;;;;;;;;;5013014;28;20088;-77
2023/06/29 01:13:17;;;;;;;4.45;2.60;;;;;;;;;;5012533;28;20472;-76
2023/06/29 01:15:43;;;;;;;5.57;3.08;;;;;;;;;;5012409;28;20026;-76
2023/06/29 01:18:12;;;;;;;4.88;2.47;;;;;;;;;;5011755;28;20080;-75
2023/06/29 01:20:38;;;;;;;6.13;3.10;;;;;;;;;;5012452;28;20026;-77
2023/06/29 01:23:07;;;;;;;4.68;3.08;;;;;;;;;;5012701;28;20452;-77
2023/06/29 01:25:35;;;;;;;4.55;2.42;;;;;;;;;;5012522;28;20080;-79
2023/06/29 01:28:05;;;;;;;4.50;2.53;;;;;;;;;;4994098;28;20687;-78
2023/06/29 01:30:31;;;;;;;4.63;2.53;;;;;;;;;;5012447;28;20033;-78
2023/06/29 01:32:58;;;;;;;5.05;2.55;;;;;;;;;;5012236;28;20030;-79
2023/06/29 01:35:24;;;;;;;5.47;2.65;;;;;;;;;;5012530;28;20034;-78
2023/06/29 01:38:12;;;;;;;5.88;2.33;;;;;;;;;;5012285;28;20036;-78
2023/06/29 01:40:39;;;;;;;4.20;2.55;;;;;;;;;;5012653;28;20097;-78
2023/06/29 01:43:05;;;;;;;7.63;2.45;;;;;;;;;;5012249;28;20065;-78
2023/06/29 01:45:32;;;;;;;7.55;2.50;;;;;;;;;;5012008;28;20033;-78
2023/06/29 01:47:58;;;;;;;12.20;2.75;;;;;;;;;;5011333;28;20021;-78
2023/06/29 01:50:25;;;;;;;9.40;2.80;;;;;;;;;;5012205;28;20025;-78
2023/06/29 01:52:51;;;;;;;5.03;2.58;;;;;;;;;;5012119;28;20030;-77
2023/06/29 01:55:17;;;;;;;3.53;2.33;;;;;;;;;;5011974;28;20578;-77
2023/06/29 01:57:43;;;;;;;5.88;2.65;;;;;;;;;;5011301;28;20033;-77
2023/06/29 02:00:09;;;;;;;6.43;2.50;;;;;;;;;;4993757;28;20481;-77
2023/06/29 02:02:35;;;;;;;5.28;3.03;;;;;;;;;;5011953;28;20030;-77
2023/06/29 02:05:01;;;;;;;8.45;3.35;;;;;;;;;;5011699;28;20030;-77
2023/06/29 02:07:27;;;;;;;7.50;2.75;;;;;;;;;;5011080;28;20022;-77
2023/06/29 02:09:53;;;;;;;8.68;3.28;;;;;;;;;;5011566;28;20374;-77
2023/06/29 02:12:19;;;;;;;7.35;3.17;;;;;;;;;;5011531;28;20025;-75
2023/06/29 02:14:45;;;;;;;7.72;3.00;;;;;;;;;;5012487;28;20033;-77
2023/06/29 02:17:11;;;;;;;6.32;3.28;;;;;;;;;;5010956;28;20029;-77
2023/06/29 02:19:37;;;;;;;5.88;3.22;;;;;;;;;;5011498;28;20029;-76
2023/06/29 02:22:03;;;;;;;4.97;2.95;;;;;;;;;;5011496;28;20396;-77
2023/06/29 02:24:29;;;;;;;4.35;3.22;;;;;;;;;;5011329;28;20522;-76
2023/06/29 02:26:55;;;;;;;4.70;3.50;;;;;;;;;;5011238;28;20018;-76
2023/06/29 02:29:21;;;;;;;5.63;2.92;;;;;;;;;;5010309;28;20109;-76
2023/06/29 02:31:47;;;;;;;9.32;3.22;;;;;;;;;;5011195;28;20029;-77
2023/06/29 02:34:13;;;;;;;5.13;3.08;;;;;;;;;;5011092;28;20029;-76
2023/06/29 02:36:39;;;;;;;6.65;3.05;;;;;;;;;;4993588;28;20105;-77
2023/06/29 02:39:05;;;;;;;5.28;3.17;;;;;;;;;;5010257;28;20397;-76
2023/06/29 02:41:31;;;;;;;5.20;3.60;;;;;;;;;;5010490;28;20037;-76
2023/06/29 02:43:57;;;;;;;6.22;3.47;;;;;;;;;;4993220;28;20026;-76
2023/06/29 02:46:23;;;;;;;3.95;3.30;;;;;;;;;;5011174;28;20018;-76
2023/06/29 02:48:49;;;;;;;5.75;2.85;;;;;;;;;;5010361;28;20558;-76
2023/06/29 02:51:15;;;;;;;4.78;3.15;;;;;;;;;;5011010;28;20026;-76
2023/06/29 02:53:41;;;;;;;6.20;3.58;;;;;;;;;;4993206;28;20396;-76
2023/06/29 02:56:07;;;;;;;6.00;3.60;;;;;;;;;;4993536;28;20033;-77
2023/06/29 02:58:33;;;;;;;5.78;3.40;;;;;;;;;;4992610;28;20069;-78
2023/06/29 03:00:59;;;;;;;7.60;3.50;;;;;;;;;;5011097;28;20121;-78
2023/06/29 03:03:25;;;;;;;6.88;3.42;;;;;;;;;;5011043;28;20036;-76
2023/06/29 03:05:51;;;;;;;6.20;3.72;;;;;;;;;;5010874;28;20097;-75
2023/06/29 03:08:17;;;;;;;8.00;3.50;;;;;;;;;;5010150;28;20018;-75
2023/06/29 03:10:43;;;;;;;6.13;4.22;;;;;;;;;;4993078;28;20022;-76
2023/06/29 03:13:09;;;;;;;21.42;16.27;;;;;;;;;;5010720;28;20026;-74
2023/06/29 03:15:35;;;;;;;9.60;6.90;;;;;;;;;;5010609;28;20129;-76
2023/06/29 03:18:01;;;;;;;5.03;3.35;;;;;;;;;;5010312;28;20026;-77
2023/06/29 03:20:27;;;;;;;3.50;2.90;;;;;;;;;;4993152;28;20022;-77
2023/06/29 03:22:54;;;;;;;5.35;2.83;;;;;;;;;;5010822;28;20080;-77
2023/06/29 03:25:20;;;;;;;4.00;2.63;;;;;;;;;;5010543;28;20026;-76
2023/06/29 03:27:46;;;;;;;6.10;2.90;;;;;;;;;;5009789;28;20022;-77
2023/06/29 03:30:12;;;;;;;9.40;3.20;;;;;;;;;;5010442;28;20396;-76
2023/06/29 03:32:38;;;;;;;3.72;2.15;;;;;;;;;;4993047;28;20392;-76
2023/06/29 03:35:04;;;;;;;5.30;2.40;;;;;;;;;;4994734;28;20026;-77
2023/06/29 03:37:30;;;;;;;8.93;2.20;;;;;;;;;;5024058;28;20026;-77
2023/06/29 03:39:56;;;;;;;2.65;1.90;;;;;;;;;;5024016;28;20038;-77
2023/06/29 03:42:22;;;;;;;4.15;2.30;;;;;;;;;;5029517;28;20026;-77
2023/06/29 03:44:48;;;;;;;2.67;1.80;;;;;;;;;;5028744;28;20045;-77
2023/06/29 03:47:14;;;;;;;6.47;1.95;;;;;;;;;;5019502;28;20045;-78
2023/06/29 03:49:40;;;;;;;5.82;1.98;;;;;;;;;;5025260;28;20041;-77
2023/06/29 03:52:06;;;;;;;5.60;1.98;;;;;;;;;;5026519;28;20050;-76
2023/06/29 03:54:32;;;;;;;4.15;1.92;;;;;;;;;;5025424;28;20029;-76
2023/06/29 03:56:58;;;;;;;3.03;1.83;;;;;;;;;;5026935;28;20056;-77
2023/06/29 03:59:24;;;;;;;4.13;1.63;;;;;;;;;;5025650;28;20026;-76
2023/06/29 04:01:50;;;;;;;2.33;1.75;;;;;;;;;;5022664;28;20083;-76
2023/06/29 04:04:16;;;;;;;4.78;2.25;;;;;;;;;;5024722;28;20022;-76
2023/06/29 04:06:42;;;;;;;4.65;1.60;;;;;;;;;;5010290;28;20018;-76
2023/06/29 04:09:10;;;;;;;6.07;1.85;;;;;;;;;;5019865;28;20022;-76
2023/06/29 04:11:36;;;;;;;4.22;2.13;;;;;;;;;;5008451;28;20049;-76
2023/06/29 04:14:02;;;;;;;7.22;1.90;;;;;;;;;;5028221;28;20100;-77
2023/06/29 04:16:28;;;;;;;6.95;2.10;;;;;;;;;;5022782;28;20034;-77
2023/06/29 04:18:54;;;;;;;3.80;1.55;;;;;;;;;;5014877;28;20032;-77
2023/06/29 04:21:20;;;;;;;4.30;1.73;;;;;;;;;;5015354;28;20056;-77
2023/06/29 04:23:46;;;;;;;4.22;1.65;;;;;;;;;;5015698;28;20030;-77
2023/06/29 04:26:13;;;;;;;3.72;1.80;;;;;;;;;;5015780;28;20085;-77
2023/06/29 04:28:44;;;;;;;6.00;2.25;;;;;;;;;;5014681;28;20031;-77
2023/06/29 04:31:10;;;;;;;3.45;1.88;;;;;;;;;;4997636;28;20053;-77
2023/06/29 04:33:36;;;;;;;3.40;2.00;;;;;;;;;;4997596;28;20109;-77
2023/06/29 04:36:02;;;;;;;4.25;1.67;;;;;;;;;;5015956;28;20029;-78
2023/06/29 04:38:28;;;;;;;4.38;2.28;;;;;;;;;;5014710;28;20026;-77
2023/06/29 04:41:03;;;;;;;4.70;1.50;;;;;;;;;;5015559;28;20143;-78
2023/06/29 04:43:29;;;;;;;4.97;1.98;;;;;;;;;;5016810;28;20030;-78
2023/06/29 04:45:55;;;;;;;6.30;2.55;;;;;;;;;;5016665;28;20036;-78
2023/06/29 04:48:28;;;;;;;4.20;1.50;;;;;;;;;;5015441;28;20373;-78
2023/06/29 04:50:55;;;;;;;3.33;1.73;;;;;;;;;;5014728;28;20026;-78
2023/06/29 04:53:21;;;;;;;3.70;1.65;;;;;;;;;;5015208;28;20037;-78
2023/06/29 04:55:48;;;;;;;5.28;1.83;;;;;;;;;;5016760;28;20033;-78
2023/06/29 04:58:14;;;;;;;4.80;1.65;;;;;;;;;;5015934;28;20037;-78
2023/06/29 05:00:40;;;;;;;4.38;2.00;;;;;;;;;;5016905;28;20025;-78
2023/06/29 05:03:06;;;;;;;6.18;2.13;;;;;;;;;;5014640;28;20018;-78
2023/06/29 05:05:32;;;;;;;2.78;1.98;;;;;;;;;;5015823;28;20030;-78
2023/06/29 05:07:58;;;;;;;2.60;1.77;;;;;;;;;;5016978;28;20096;-78
2023/06/29 05:10:24;;;;;;;5.35;2.10;;;;;;;;;;5000004;28;20073;-78
2023/06/29 05:12:50;;;;;;;4.43;1.73;;;;;;;;;;5020379;28;20522;-79
2023/06/29 05:15:16;;;;;;;3.92;1.88;;;;;;;;;;5020025;28;20492;-78
2023/06/29 05:17:43;;;;;;;6.85;2.50;;;;;;;;;;5029142;28;20026;-78
2023/06/29 05:20:10;;;;;;;6.43;1.70;;;;;;;;;;5005698;28;20053;-79
2023/06/29 05:22:36;;;;;;;4.75;1.98;;;;;;;;;;5031760;28;20026;-79
2023/06/29 05:25:02;;;;;;;6.18;2.17;;;;;;;;;;5021603;28;20169;-77
2023/06/29 05:27:28;;;;;;;3.95;1.70;;;;;;;;;;4999437;28;20509;-78
2023/06/29 05:29:54;;;;;;;5.03;1.83;;;;;;;;;;5032481;28;20029;-79
2023/06/29 05:32:20;;;;;;;5.70;2.17;;;;;;;;;;5039595;28;20103;-78
2023/06/29 05:34:46;;;;;;;4.28;2.20;;;;;;;;;;5038840;28;20033;-79
2023/06/29 05:37:12;;;;;;;5.88;1.83;;;;;;;;;;5037564;28;20076;-79
2023/06/29 05:39:38;;;;;;;3.85;1.80;;;;;;;;;;5039473;28;20037;-79
2023/06/29 05:42:04;;;;;;;7.25;2.20;;;;;;;;;;5037436;28;20025;-78
2023/06/29 05:44:30;;;;;;;4.20;1.63;;;;;;;;;;5036011;28;20026;-78
2023/06/29 05:46:56;;;;;;;5.57;2.60;;;;;;;;;;5022764;28;20045;-80
2023/06/29 05:49:22;;;;;;;5.93;2.00;;;;;;;;;;5032235;28;20021;-79
2023/06/29 05:51:48;;;;;;;2.60;1.52;;;;;;;;;;5024122;28;20026;-79
2023/06/29 05:54:14;;;;;;;3.55;1.92;;;;;;;;;;5035551;28;20029;-79
2023/06/29 05:56:40;;;;;;;4.65;1.73;;;;;;;;;;5023170;28;20040;-79
2023/06/29 05:59:06;;;;;;;6.00;2.33;;;;;;;;;;5034120;28;20033;-80
2023/06/29 06:01:34;;;;;;;4.15;2.05;;;;;;;;;;5028771;28;20040;-79
2023/06/29 06:04:00;;;;;;;5.15;2.00;;;;;;;;;;5027299;28;20408;-79
2023/06/29 06:06:26;;;;;;;5.20;1.70;;;;;;;;;;5036753;28;20052;-79
2023/06/29 06:08:52;;;;;;;5.93;1.75;;;;;;;;;;5021224;28;20056;-80
2023/06/29 06:11:18;;;;;;;5.60;1.75;;;;;;;;;;5026366;28;20120;-80
2023/06/29 06:13:44;;;;;;;6.68;2.28;;;;;;;;;;5038492;28;20045;-77
2023/06/29 06:16:10;;;;;;;5.45;1.92;;;;;;;;;;5022709;28;20037;-78
2023/06/29 06:18:36;;;;;;;5.43;2.20;;;;;;;;;;5034040;28;20029;-77
2023/06/29 06:21:03;;;;;;;5.60;1.83;;;;;;;;;;5042829;28;20032;-82
2023/06/29 06:23:29;;;;;;;5.18;2.03;;;;;;;;;;5029907;28;20018;-82
2023/06/29 06:25:55;;;;;;;4.57;2.00;;;;;;;;;;5032846;28;20029;-82
2023/06/29 06:28:21;;;;;;;5.95;1.75;;;;;;;;;;5029701;28;20032;-81
2023/06/29 06:30:48;;;;;;;3.58;1.70;;;;;;;;;;5044269;28;20025;-82
2023/06/29 06:33:14;;;;;;;4.65;1.63;;;;;;;;;;5044291;28;20052;-81
2023/06/29 06:35:41;;;;;;;5.35;1.92;;;;;;;;;;5041577;28;20033;-82
2023/06/29 06:38:07;;;;;;;4.57;1.92;;;;;;;;;;5040454;28;20056;-82
2023/06/29 06:40:33;;;;;;;6.25;2.03;;;;;;;;;;5042240;28;20036;-83
2023/06/29 06:42:59;;;;;;;4.28;1.48;;;;;;;;;;5041010;28;20030;-83
2023/06/29 06:45:25;;;;;;;2.33;1.55;;;;;;;;;;5041574;28;20040;-83
2023/06/29 06:47:51;;;;;;;5.07;1.60;;;;;;;;;;5032513;28;20070;-84
2023/06/29 06:50:17;;;;;;;3.80;1.77;;;;;;;;;;5017730;28;20408;-82
2023/06/29 06:52:43;;;;;;;3.25;1.52;;;;;;;;;;5019926;28;20045;-81
2023/06/29 06:55:10;;;;;;;3.08;1.52;;;;;;;;;;5019067;28;20022;-80
2023/06/29 06:57:36;;;;;;;3.25;1.52;;;;;;;;;;5018066;28;20057;-82
2023/06/29 07:00:03;;;;;;;3.80;1.65;;;;;;;;;;5018988;28;20034;-76
2023/06/29 07:02:29;;;;;;;8.10;2.00;;;;;;;;;;5017369;28;20030;-79
2023/06/29 07:04:55;;;;;;;3.38;2.10;;;;;;;;;;5023472;28;20046;-79
2023/06/29 07:07:21;;;;;;;6.72;1.67;;;;;;;;;;5026645;28;20014;-79
2023/06/29 07:09:48;;;;;;;4.93;1.85;;;;;;;;;;5028950;28;20038;-79
2023/06/29 07:12:14;;;;;;;3.33;1.58;;;;;;;;;;5024054;28;20057;-78
2023/06/29 07:14:40;;;;;;;7.38;2.03;;;;;;;;;;5026479;28;20048;-78
2023/06/29 07:17:06;;;;;;;2.88;1.48;;;;;;;;;;5009247;28;20485;-77
2023/06/29 07:19:32;;;;;;;4.30;2.00;;;;;;;;;;5009048;28;20499;-78
2023/06/29 07:21:58;;;;;;;4.07;1.65;;;;;;;;;;5007243;28;20022;-78
2023/06/29 07:24:24;;;;;;;5.03;1.77;;;;;;;;;;5009719;28;20041;-78
2023/06/29 07:26:50;;;;;;;4.88;1.73;;;;;;;;;;5019023;28;20030;-78
2023/06/29 07:29:16;;;;;;;3.40;1.70;;;;;;;;;;5018367;28;20033;-79
2023/06/29 07:31:43;;;;;;;5.68;2.00;;;;;;;;;;5017407;28;20028;-77
2023/06/29 07:34:09;;;;;;;4.53;1.95;;;;;;;;;;5015800;28;20034;-78
2023/06/29 07:36:35;;;;;;;3.70;1.80;;;;;;;;;;5020358;28;20053;-78
2023/06/29 07:39:02;;;;;;;5.45;2.30;;;;;;;;;;5020301;28;20106;-78
2023/06/29 07:41:28;;;;;;;6.60;1.77;;;;;;;;;;5020610;28;20741;-79
2023/06/29 07:43:57;;;;;;;7.40;2.00;;;;;;;;;;5020724;28;20029;-78
2023/06/29 07:46:23;;;;;;;6.20;1.63;;;;;;;;;;5020414;28;20060;-78
2023/06/29 07:48:49;;;;;;;4.20;1.70;;;;;;;;;;5020120;28;20022;-78
2023/06/29 07:51:15;;;;;;;3.08;1.60;;;;;;;;;;5020953;28;20034;-79
2023/06/29 07:53:42;;;;;;;4.55;1.88;;;;;;;;;;5021356;28;20057;-78
2023/06/29 07:56:08;;;;;;;4.05;1.50;;;;;;;;;;5021412;28;20084;-78
2023/06/29 07:58:34;;;;;;;3.63;1.70;;;;;;;;;;5020343;28;20037;-78
2023/06/29 08:01:01;;;;;;;4.32;1.90;;;;;;;;;;5017978;28;20026;-79
2023/06/29 08:03:27;;;;;;;3.75;1.50;;;;;;;;;;5020531;28;20025;-78
2023/06/29 08:05:53;;;;;;;8.48;1.40;;;;;;;;;;5016230;28;20026;-78
2023/06/29 08:08:20;;;;;;;5.20;2.20;;;;;;;;;;4997149;28;20026;-77
2023/06/29 08:10:46;;;;;;;3.40;1.60;;;;;;;;;;5016060;28;20527;-78
2023/06/29 08:13:12;;;;;;;6.18;1.67;;;;;;;;;;5015436;28;20041;-78
2023/06/29 08:15:38;;;;;;;3.65;1.83;;;;;;;;;;5016248;28;20038;-78
2023/06/29 08:18:04;;;;;;;3.92;1.50;;;;;;;;;;5016127;28;20033;-78
2023/06/29 08:20:30;;;;;;;2.85;1.38;;;;;;;;;;5034018;28;20502;-78
2023/06/29 08:22:56;;;;;;;5.43;1.50;;;;;;;;;;5035260;28;20088;-78
2023/06/29 08:25:22;;;;;;;1.80;1.15;;;;;;;;;;5033967;28;20026;-78
2023/06/29 08:27:52;;;;;;;5.28;1.67;;;;;;;;;;5036475;28;20538;-78
2023/06/29 08:30:18;;;;;;;3.03;1.63;;;;;;;;;;5035943;28;20438;-78
2023/06/29 08:32:47;;;;;;;3.78;1.42;;;;;;;;;;5023567;28;20492;-77
2023/06/29 08:35:13;;;;;;;3.72;1.35;;;;;;;;;;5005502;28;20054;-78
2023/06/29 08:37:39;;;;;;;4.30;1.77;;;;;;;;;;5015521;28;20493;-76
2023/06/29 08:40:06;;;;;;;2.25;1.48;;;;;;;;;;5016485;28;20026;-77
2023/06/29 08:42:32;;;;;;;2.40;1.50;;;;;;;;;;5016249;28;20033;-78
2023/06/29 08:44:58;;;;;;;8.70;1.48;;;;;;;;;;5001136;28;20103;-78
2023/06/29 08:47:24;;;;;;;2.47;1.48;;;;;;;;;;5021474;28;20049;-78
2023/06/29 08:49:51;;;;;;;2.80;1.30;;;;;;;;;;5028786;28;20018;-78
2023/06/29 08:52:19;;;;;;;5.50;1.48;;;;;;;;;;5029821;28;20046;-78
2023/06/29 08:54:45;;;;;;;4.07;1.67;;;;;;;;;;5027515;28;20089;-78
2023/06/29 08:57:11;;;;;;;3.85;1.55;;;;;;;;;;5021778;28;20026;-79
2023/06/29 08:59:38;;;;;;;2.90;1.42;;;;;;;;;;5017707;28;20029;-79
2023/06/29 09:02:05;;;;;;;4.03;1.48;;;;;;;;;;5017526;28;20061;-79
2023/06/29 09:04:31;;;;;;;3.70;1.50;;;;;;;;;;5018015;28;20029;-79
2023/06/29 09:06:57;;;;;;;2.97;1.52;;;;;;;;;;5017587;28;20053;-79
2023/06/29 09:09:24;;;;;;;4.40;1.38;;;;;;;;;;4999040;28;20088;-79
2023/06/29 09:11:50;;;;;;;4.28;2.15;;;;;;;;;;5017289;28;20161;-79
2023/06/29 09:14:16;;;;;;;3.20;1.58;;;;;;;;;;5018653;28;20424;-79
2023/06/29 09:16:58;;;;;;;3.47;1.65;;;;;;;;;;5021225;28;20025;-79
2023/06/29 09:19:24;;;;;;;3.70;1.70;;;;;;;;;;5022196;28;20516;-79
2023/06/29 09:21:50;;;;;;;2.38;1.50;;;;;;;;;;5023031;28;20041;-79
2023/06/29 09:24:16;;;;;;;2.63;1.38;;;;;;;;;;5021926;28;20061;-78
2023/06/29 09:26:42;;;;;;;3.00;1.67;;;;;;;;;;5021169;28;20026;-78
2023/06/29 09:29:08;;;;;;;4.78;1.48;;;;;;;;;;5022585;28;20056;-78
2023/06/29 09:31:37;;;;;;;3.03;1.50;;;;;;;;;;5024918;28;20037;-78
2023/06/29 09:34:20;;;;;;;3.00;1.63;;;;;;;;;;5003494;28;20030;-78
2023/06/29 09:36:46;;;;;;;2.15;1.33;;;;;;;;;;5019728;28;20123;-77
2023/06/29 09:39:12;;;;;;;2.58;1.73;;;;;;;;;;5018359;28;20038;-79
2023/06/29 09:41:48;;;;;;;3.03;1.25;;;;;;;;;;5019070;28;20025;-78
2023/06/29 09:44:19;;;;;;;3.38;1.67;;;;;;;;;;5017132;28;20029;-78
2023/06/29 09:46:45;;;;;;;;;;;;;;;;;;5015839;28;20022;-78
2023/06/29 09:49:11;;;;;;;2.58;1.50;;;;;;;;;;4997321;28;20306;-78
2023/06/29 09:51:38;;;;;;;2.90;1.55;;;;;;;;;;5015723;28;20054;-78
2023/06/29 09:54:04;;;;;;;2.45;1.40;;;;;;;;;;5015692;28;20080;-79
2023/06/29 09:56:33;;;;;;;2.33;1.38;;;;;;;;;;5018225;28;20036;-78
2023/06/29 09:59:01;;;;;;;2.75;1.83;;;;;;;;;;5017064;28;20496;-78
2023/06/29 10:01:28;;;;;;;3.40;1.30;;;;;;;;;;5017987;28;20037;-78
2023/06/29 10:03:55;;;;;;;3.53;1.58;;;;;;;;;;5018436;28;20030;-77
2023/06/29 10:06:24;;;;;;;1.95;1.10;;;;;;;;;;5026507;28;20136;-79
2023/06/29 10:08:54;;;;;;;3.72;1.65;;;;;;;;;;5038588;28;20044;-79
2023/06/29 10:11:20;;;;;;;6.95;1.98;;;;;;;;;;5037583;28;20377;-78
2023/06/29 10:13:48;;;;;;;3.35;1.70;;;;;;;;;;5037592;28;20076;-78
2023/06/29 10:16:15;;;;;;;4.63;1.42;;;;;;;;;;5037866;28;20068;-78
2023/06/29 10:18:44;;;;;;;1.75;1.52;;;;;;;;;;5042380;28;20663;-78
2023/06/29 10:21:11;;;;;;;3.30;1.30;;;;;;;;;;5029396;28;20068;-78
2023/06/29 10:23:39;;;;;;;4.05;1.52;;;;;;;;;;5037773;28;20042;-77
2023/06/29 10:26:05;;;;;;;2.03;1.58;;;;;;;;;;5033958;28;20129;-77
2023/06/29 10:28:31;;;;;;;1.83;1.48;;;;;;;;;;5034931;28;20459;-77
2023/06/29 10:31:00;;;;;;;5.85;1.67;;;;;;;;;;5035632;28;20037;-77
2023/06/29 10:33:26;;;;;;;2.28;1.23;;;;;;;;;;5035880;28;20057;-77
2023/06/29 10:36:01;;;;;;;3.42;1.55;;;;;;;;;;5017404;28;20036;-77
2023/06/29 10:38:31;;;;;;;2.90;1.65;;;;;;;;;;5031275;28;20021;-79
2023/06/29 10:40:57;;;;;;;4.00;1.38;;;;;;;;;;5032429;28;20029;-77
2023/06/29 10:43:26;;;;;;;1.80;1.30;;;;;;;;;;5034360;28;20502;-77
2023/06/29 10:45:52;;;;;;;6.03;1.95;;;;;;;;;;5034544;28;20030;-77
2023/06/29 10:48:18;;;;;;;4.90;1.42;;;;;;;;;;5032586;28;20021;-77
2023/06/29 10:50:45;;;;;;;4.70;1.55;;;;;;;;;;5032014;28;20456;-77
2023/06/29 10:53:12;;;;;;;2.42;1.23;;;;;;;;;;4997649;28;20034;-77
2023/06/29 10:55:38;;;;;;;3.30;1.77;;;;;;;;;;5015765;28;20022;-77
2023/06/29 10:58:16;;;;;;;3.20;1.88;;;;;;;;;;5022797;28;20017;-76
2023/06/29 11:00:42;;;;;;;3.10;1.60;;;;;;;;;;5014376;28;20157;-77
2023/06/29 11:03:09;;;;;;;3.40;1.70;;;;;;;;;;5013076;28;20038;-77
2023/06/29 11:05:35;;;;;;;4.15;1.70;;;;;;;;;;5012363;28;20029;-76
2023/06/29 11:08:01;;;;;;;2.05;1.38;;;;;;;;;;5010244;28;20108;-76
2023/06/29 11:10:29;;;;;;;4.93;1.90;;;;;;;;;;5010995;28;20045;-76
2023/06/29 11:12:55;;;;;;;2.13;1.50;;;;;;;;;;5010975;28;20034;-77
2023/06/29 11:15:21;;;;;;;1.73;1.35;;;;;;;;;;5013854;28;20041;-78
2023/06/29 11:17:50;;;;;;;2.45;1.50;;;;;;;;;;5012681;28;20682;-78
2023/06/29 11:20:17;;;;;;;3.15;1.50;;;;;;;;;;5017163;28;20033;-77
2023/06/29 11:22:43;;;;;;;4.63;2.00;;;;;;;;;;5017051;28;20058;-77
2023/06/29 11:25:16;;;;;;;4.55;1.77;;;;;;;;;;5023193;28;20030;-78
2023/06/29 11:27:43;;;;;;;5.43;1.58;;;;;;;;;;5026643;28;20029;-77
2023/06/29 11:30:10;;;;;;;3.75;1.73;;;;;;;;;;5027562;28;20038;-79
2023/06/29 11:32:39;;;;;;;2.90;1.55;;;;;;;;;;5034451;28;20026;-77
2023/06/29 11:35:07;;;;;;;2.60;1.60;;;;;;;;;;5028070;28;20089;-78
2023/06/29 11:37:35;;;;;;;3.20;1.60;;;;;;;;;;5014858;28;20026;-79
2023/06/29 11:40:07;;;;;;;4.85;1.67;;;;;;;;;;5015264;28;20018;-78
2023/06/29 11:42:33;;;;;;;2.85;1.63;;;;;;;;;;5016769;28;20033;-78
2023/06/29 11:45:03;;;;;;;2.38;1.45;;;;;;;;;;5016511;28;20034;-78
2023/06/29 11:47:30;;;;;;;2.47;1.33;;;;;;;;;;4998629;28;20085;-78
2023/06/29 11:49:59;;;;;;;2.25;1.23;;;;;;;;;;5016701;28;20547;-78
2023/06/29 11:52:25;;;;;;;5.45;1.70;;;;;;;;;;5015731;28;20373;-77
2023/06/29 11:54:51;;;;;;;4.03;1.50;;;;;;;;;;4998288;28;20026;-78
2023/06/29 11:57:17;;;;;;;5.97;1.70;;;;;;;;;;5016150;28;20491;-78
2023/06/29 11:59:43;;;;;;;2.50;1.55;;;;;;;;;;4999126;28;20022;-78
2023/06/29 12:02:10;;;;;;;2.40;1.48;;;;;;;;;;5016090;28;20038;-78
2023/06/29 12:04:36;;;;;;;4.85;1.70;;;;;;;;;;4998699;28;20022;-78
2023/06/29 12:07:02;;;;;;;5.38;1.73;;;;;;;;;;5015592;28;20037;-78
2023/06/29 12:09:32;;;;;;;3.30;1.45;;;;;;;;;;5014046;28;20057;-77
2023/06/29 12:12:02;;;;;;;2.70;1.75;;;;;;;;;;4994937;28;20037;-77
2023/06/29 12:14:33;;;;;;;3.20;1.20;;;;;;;;;;5016054;28;20112;-77
2023/06/29 12:17:00;;;;;;;4.40;1.88;;;;;;;;;;5015727;28;20099;-76
2023/06/29 12:19:33;;;;;;;3.58;1.92;;;;;;;;;;5015835;28;20041;-76
2023/06/29 12:22:00;;;;;;;2.75;1.52;;;;;;;;;;5015671;28;20412;-77
2023/06/29 12:24:26;;;;;;;3.63;1.60;;;;;;;;;;5005703;28;20021;-77
2023/06/29 12:26:52;;;;;;;2.70;1.70;;;;;;;;;;5006918;28;20053;-77
2023/06/29 12:29:18;;;;;;;2.95;1.58;;;;;;;;;;5015271;28;20496;-77
2023/06/29 12:31:44;;;;;;;3.28;1.55;;;;;;;;;;5027223;28;20057;-77
2023/06/29 12:34:10;;;;;;;3.85;1.80;;;;;;;;;;5045730;28;20029;-77
2023/06/29 12:36:36;;;;;;;2.45;1.55;;;;;;;;;;5049485;28;20036;-77
2023/06/29 12:39:02;;;;;;;2.30;1.25;;;;;;;;;;5037432;28;20034;-78
2023/06/29 12:41:28;;;;;;;3.20;1.95;;;;;;;;;;5037685;28;20318;-77
2023/06/29 12:43:54;;;;;;;3.08;1.73;;;;;;;;;;5037441;28;20022;-77
2023/06/29 12:46:23;;;;;;;2.85;1.50;;;;;;;;;;5037681;28;20391;-77
2023/06/29 12:48:49;;;;;;;2.33;1.30;;;;;;;;;;5036567;28;20018;-77
2023/06/29 12:51:15;;;;;;;4.18;1.90;;;;;;;;;;5035025;28;20034;-77
2023/06/29 12:53:42;;;;;;;2.97;1.40;;;;;;;;;;5037257;28;20025;-78
2023/06/29 12:56:08;;;;;;;3.75;1.67;;;;;;;;;;5036831;28;20388;-77
2023/06/29 12:58:34;;;;;;;2.65;1.50;;;;;;;;;;5017964;28;20033;-77
2023/06/29 13:01:00;;;;;;;3.67;1.38;;;;;;;;;;5013662;28;20033;-78
2023/06/29 13:03:26;;;;;;;4.20;2.03;;;;;;;;;;5015317;28;20444;-77
2023/06/29 13:05:52;;;;;;;3.35;1.75;;;;;;;;;;5016772;28;20041;-77
2023/06/29 13:08:18;;;;;;;3.63;2.03;;;;;;;;;;5016903;28;20026;-77
2023/06/29 13:10:45;;;;;;;3.30;1.90;;;;;;;;;;5015933;28;20030;-77
2023/06/29 13:13:11;;;;;;;2.45;1.50;;;;;;;;;;5014839;28;20029;-77
2023/06/29 13:15:37;;;;;;;3.33;1.75;;;;;;;;;;5016106;28;20038;-77
2023/06/29 13:18:03;;;;;;;1.65;1.40;;;;;;;;;;5016949;28;20477;-77
2023/06/29 13:20:29;;;;;;;3.78;1.70;;;;;;;;;;5016445;28;20176;-77
2023/06/29 13:22:55;;;;;;;3.58;1.48;;;;;;;;;;5017919;28;20026;-78
2023/06/29 13:25:21;;;;;;;4.13;1.63;;;;;;;;;;5019798;28;20033;-77
2023/06/29 13:27:47;;;;;;;1.67;1.23;;;;;;;;;;5022266;28;20030;-77
2023/06/29 13:30:15;;;;;;;2.72;1.60;;;;;;;;;;5025277;28;20029;-77
2023/06/29 13:32:41;;;;;;;3.83;1.52;;;;;;;;;;5019228;28;20037;-78
2023/06/29 13:35:08;;;;;;;4.45;1.60;;;;;;;;;;5018868;28;20076;-77
2023/06/29 13:37:34;;;;;;;2.80;1.60;;;;;;;;;;5023367;28;20036;-75
2023/06/29 13:40:00;;;;;;;4.53;1.55;;;;;;;;;;5035487;28;20053;-76
2023/06/29 13:42:25;;;;;;;1.95;1.50;;;;;;;;;;5036726;28;20014;-75
2023/06/29 13:44:51;;;;;;;3.42;1.60;;;;;;;;;;5018732;28;20025;-75
2023/06/29 13:47:18;;;;;;;2.13;1.33;;;;;;;;;;5034995;28;20021;-77
2023/06/29 13:49:45;;;;;;;3.00;1.52;;;;;;;;;;5035110;28;20020;-77
2023/06/29 13:52:11;;;;;;;4.55;1.55;;;;;;;;;;5035736;28;20033;-76
2023/06/29 13:54:37;;;;;;;7.28;2.13;;;;;;;;;;5024917;28;20038;-78
2023/06/29 13:57:03;;;;;;;2.42;1.30;;;;;;;;;;5021138;28;20022;-76
2023/06/29 13:59:29;;;;;;;4.13;1.27;;;;;;;;;;5022587;28;20036;-77
2023/06/29 14:01:56;;;;;;;3.22;1.42;;;;;;;;;;5026714;28;20033;-77
2023/06/29 14:04:23;;;;;;;2.20;1.80;;;;;;;;;;5026267;28;20033;-77
2023/06/29 14:06:49;;;;;;;1.70;1.45;;;;;;;;;;5028602;28;20041;-77
2023/06/29 14:09:16;;;;;;;5.65;1.50;;;;;;;;;;5024952;28;20022;-78
2023/06/29 14:11:42;;;;;;;3.42;1.83;;;;;;;;;;5017188;28;20048;-76
2023/06/29 14:14:08;;;;;;;4.43;1.70;;;;;;;;;;5053654;22;20028;31
2023/06/29 14:16:35;;;;;;;5.90;1.60;;;;;;;;;;4995617;28;20137;-76
2023/06/29 14:19:01;;;;;;;3.78;1.60;;;;;;;;;;5011043;28;20050;-74
2023/06/29 14:21:27;;;;;;;3.33;1.83;;;;;;;;;;5011680;28;20068;-76
2023/06/29 14:23:53;;;;;;;4.57;1.88;;;;;;;;;;5012072;28;20022;-74
2023/06/29 14:26:19;;;;;;;1.95;1.50;;;;;;;;;;5010523;28;20033;-75
2023/06/29 14:28:45;;;;;;;3.00;1.50;;;;;;;;;;4992281;28;20489;-76
2023/06/29 14:31:11;;;;;;;4.22;1.85;;;;;;;;;;4992301;28;20499;-76
2023/06/29 14:33:37;;;;;;;24.38;18.05;;;;;;;;;;4990745;28;20080;-76
2023/06/29 14:36:07;;;;;;;2.05;1.40;;;;;;;;;;4991270;28;20030;-75
2023/06/29 14:38:33;;;;;;;4.20;1.85;;;;;;;;;;4991146;28;20140;-76
2023/06/29 14:41:00;;;;;;;2.60;1.33;;;;;;;;;;4992076;28;20046;-77